Time;durP1;ratioP1;P1;durP2;ratioP2;P2;SDS_P1;SDS_P2;PMS_P1;PMS_P2;Temp;Humidity;BMP_temperature;BMP_pressure;BME280_temperature;BME280_humidity;BME280_pressure;Samples;Min_cycle;Max_cycle;Signal;HPM_P1;HPM_P2
2022/11/22 00:02:09;;;;;;;14.07;12.27;;;8.30;99.90;;;;;;4991191;28;20039;-78
2022/11/22 00:04:35;;;;;;;17.67;12.98;;;8.20;99.90;;;;;;5007933;28;20042;-78
2022/11/22 00:07:02;;;;;;;13.75;12.43;;;8.30;99.90;;;;;;4991008;28;20042;-78
2022/11/22 00:09:28;;;;;;;15.45;12.80;;;8.30;99.90;;;;;;4992297;28;20026;-78
2022/11/22 00:11:54;;;;;;;14.53;13.10;;;8.30;99.90;;;;;;4984018;28;20046;-78
2022/11/22 00:14:20;;;;;;;15.67;14.10;;;8.30;99.90;;;;;;5007559;28;20026;-78
2022/11/22 00:16:46;;;;;;;18.67;14.90;;;8.30;99.90;;;;;;5015426;28;20038;-78
2022/11/22 00:19:12;;;;;;;15.85;14.23;;;8.20;99.90;;;;;;5007157;28;20033;-78
2022/11/22 00:21:38;;;;;;;17.40;15.53;;;8.30;99.90;;;;;;4991444;28;20479;-78
2022/11/22 00:24:05;;;;;;;16.35;14.90;;;8.20;99.90;;;;;;5006689;28;20030;-78
2022/11/22 00:26:31;;;;;;;16.08;14.57;;;8.30;99.90;;;;;;4975086;28;20416;-78
2022/11/22 00:28:57;;;;;;;16.45;14.68;;;8.20;99.90;;;;;;4989669;28;20506;-79
2022/11/22 00:31:23;;;;;;;16.42;14.93;;;8.20;99.90;;;;;;4981794;28;20039;-78
2022/11/22 00:33:49;;;;;;;16.07;14.77;;;8.20;99.90;;;;;;5010560;28;20034;-79
2022/11/22 00:36:16;;;;;;;16.93;15.30;;;8.20;99.90;;;;;;4996238;28;20451;-78
2022/11/22 00:38:42;;;;;;;15.85;14.50;;;8.20;99.90;;;;;;4996089;28;20034;-78
2022/11/22 00:41:09;;;;;;;16.40;14.85;;;8.20;99.90;;;;;;4993880;28;20442;-78
2022/11/22 00:43:35;;;;;;;13.87;12.93;;;8.30;99.90;;;;;;4992402;28;20419;-78
2022/11/22 00:46:01;;;;;;;15.63;14.02;;;8.40;99.90;;;;;;4993222;28;20035;-78
2022/11/22 00:48:27;;;;;;;17.35;15.25;;;8.30;99.90;;;;;;4997581;28;20422;-77
2022/11/22 00:50:54;;;;;;;15.73;14.18;;;8.30;99.90;;;;;;4993424;28;20046;-78
2022/11/22 00:53:21;;;;;;;15.95;14.45;;;8.30;99.90;;;;;;4993634;28;20037;-78
2022/11/22 00:55:47;;;;;;;16.27;14.75;;;8.30;99.90;;;;;;4995349;28;20038;-77
2022/11/22 00:58:14;;;;;;;17.98;15.38;;;8.30;99.90;;;;;;4994829;28;20049;-78
2022/11/22 01:00:40;;;;;;;16.35;15.02;;;8.30;99.90;;;;;;4994134;28;20034;-78
2022/11/22 01:03:08;;;;;;;18.45;14.23;;;8.40;99.90;;;;;;4994179;28;20391;-78
2022/11/22 01:05:34;;;;;;;15.65;13.95;;;8.30;99.90;;;;;;4993418;28;20046;-78
2022/11/22 01:08:00;;;;;;;17.45;13.93;;;8.30;99.90;;;;;;4993320;28;20073;-78
2022/11/22 01:10:26;;;;;;;15.05;13.57;;;8.30;99.90;;;;;;4993782;28;20054;-78
2022/11/22 01:12:52;;;;;;;16.30;13.32;;;8.30;99.90;;;;;;4993540;28;20399;-78
2022/11/22 01:15:18;;;;;;;14.38;13.07;;;8.30;99.90;;;;;;4992631;28;20034;-78
2022/11/22 01:17:44;;;;;;;13.77;12.68;;;8.30;99.90;;;;;;5013183;28;20406;-78
2022/11/22 01:20:11;;;;;;;15.65;12.25;;;8.30;99.90;;;;;;4993540;28;20050;-78
2022/11/22 01:22:37;;;;;;;15.98;11.00;;;8.30;99.90;;;;;;5002984;28;20830;-78
2022/11/22 01:25:03;;;;;;;12.70;11.57;;;8.40;99.90;;;;;;4991297;28;20050;-78
2022/11/22 01:27:29;;;;;;;12.63;11.60;;;8.40;99.90;;;;;;4976997;28;20353;-78
2022/11/22 01:29:55;;;;;;;17.38;11.88;;;8.40;99.90;;;;;;4992928;28;20034;-78
2022/11/22 01:32:21;;;;;;;13.68;10.98;;;8.30;99.90;;;;;;5008583;28;20487;-78
2022/11/22 01:34:47;;;;;;;15.88;11.88;;;8.40;99.90;;;;;;4992860;28;20034;-78
2022/11/22 01:37:14;;;;;;;12.02;10.82;;;8.40;99.90;;;;;;4993103;28;20517;-77
2022/11/22 01:39:40;;;;;;;12.13;9.98;;;8.40;99.90;;;;;;4994658;28;20026;-78
2022/11/22 01:42:07;;;;;;;13.30;10.95;;;8.40;99.90;;;;;;4993774;28;20026;-78
2022/11/22 01:44:33;;;;;;;11.98;10.15;;;8.50;99.90;;;;;;4976471;28;20034;-78
2022/11/22 01:47:03;;;;;;;15.98;11.27;;;8.40;99.90;;;;;;5007625;28;20034;-77
2022/11/22 01:49:40;;;;;;;11.55;10.32;;;8.50;99.90;;;;;;4995379;28;20034;-78
2022/11/22 01:52:12;;;;;;;12.40;11.15;;;8.40;99.90;;;;;;4993549;28;20038;-78
2022/11/22 01:54:39;;;;;;;11.45;10.27;;;8.40;99.90;;;;;;5007759;28;20026;-78
2022/11/22 01:57:11;;;;;;;13.38;10.38;;;8.40;99.90;;;;;;4993335;28;20046;-78
2022/11/22 01:59:38;;;;;;;12.18;10.25;;;8.40;99.90;;;;;;4997061;28;20031;-78
2022/11/22 02:02:04;;;;;;;11.32;10.18;;;8.40;99.90;;;;;;4969233;28;20031;-78
2022/11/22 02:04:30;;;;;;;13.45;10.00;;;8.40;99.90;;;;;;4991624;28;20031;-78
2022/11/22 02:07:24;;;;;;;13.38;9.85;;;8.40;99.90;;;;;;4993481;28;20037;-78
2022/11/22 02:09:51;;;;;;;12.40;10.10;;;8.50;99.90;;;;;;4974342;28;20031;-78
2022/11/22 02:12:22;;;;;;;18.52;10.15;;;8.40;99.90;;;;;;4981825;28;20047;-78
2022/11/22 02:14:48;;;;;;;13.50;10.57;;;8.40;99.90;;;;;;5008169;28;20114;-78
2022/11/22 02:17:14;;;;;;;11.13;9.48;;;8.40;99.90;;;;;;4984549;28;20041;-78
2022/11/22 02:19:41;;;;;;;11.90;9.70;;;8.40;99.90;;;;;;4992215;28;20038;-78
2022/11/22 02:22:29;;;;;;;11.88;10.60;;;8.40;99.90;;;;;;4992951;28;20026;-78
2022/11/22 02:25:18;;;;;;;13.45;10.32;;;8.40;99.90;;;;;;4991900;28;20053;-78
2022/11/22 02:27:45;;;;;;;15.15;10.35;;;8.40;99.90;;;;;;4985651;28;20030;-78
2022/11/22 02:30:11;;;;;;;12.30;9.47;;;8.30;99.90;;;;;;4975300;28;20050;-79
2022/11/22 02:32:37;;;;;;;10.40;9.43;;;8.30;99.90;;;;;;4974893;28;20049;-78
2022/11/22 02:35:20;;;;;;;11.73;9.50;;;8.30;99.90;;;;;;4990966;28;20034;-78
2022/11/22 02:37:47;;;;;;;11.73;9.98;;;8.30;99.90;;;;;;5008315;28;20034;-78
2022/11/22 02:40:13;;;;;;;10.57;9.88;;;8.40;99.90;;;;;;4979579;28;20038;-77
2022/11/22 02:42:41;;;;;;;12.32;9.55;;;8.30;99.90;;;;;;4970930;28;20468;-78
2022/11/22 02:45:08;;;;;;;15.45;9.60;;;8.40;99.90;;;;;;4972006;28;20039;-78
2022/11/22 02:47:34;;;;;;;9.45;8.73;;;8.40;99.90;;;;;;5006222;28;20035;-78
2022/11/22 02:50:00;;;;;;;9.98;9.07;;;8.40;99.90;;;;;;4991976;28;20395;-78
2022/11/22 02:52:26;;;;;;;10.07;9.23;;;8.40;99.90;;;;;;4992154;28;20039;-77
2022/11/22 02:54:52;;;;;;;12.88;9.60;;;8.30;99.90;;;;;;4989215;28;20490;-78
2022/11/22 02:57:18;;;;;;;11.20;10.20;;;8.30;99.90;;;;;;4991720;28;20034;-77
2022/11/22 02:59:44;;;;;;;14.38;9.80;;;8.30;99.90;;;;;;5007359;28;20467;-78
2022/11/22 03:02:10;;;;;;;10.00;9.05;;;8.30;99.90;;;;;;4988814;28;20038;-78
2022/11/22 03:04:37;;;;;;;11.05;9.85;;;8.20;99.90;;;;;;4971101;28;20045;-78
2022/11/22 03:07:03;;;;;;;10.82;9.73;;;8.30;99.90;;;;;;4984682;28;20027;-78
2022/11/22 03:09:29;;;;;;;10.38;9.40;;;8.20;99.90;;;;;;5004238;28;20034;-78
2022/11/22 03:11:55;;;;;;;11.23;9.32;;;8.20;99.90;;;;;;4985831;28;20050;-78
2022/11/22 03:14:21;;;;;;;10.97;9.60;;;8.30;99.90;;;;;;4955515;28;20030;-78
2022/11/22 03:16:47;;;;;;;12.48;10.27;;;8.20;99.90;;;;;;4996063;28;20494;-78
2022/11/22 03:19:14;;;;;;;11.32;9.70;;;8.20;99.90;;;;;;5006336;28;20026;-78
2022/11/22 03:21:40;;;;;;;13.55;10.07;;;8.30;99.90;;;;;;5005952;28;20030;-78
2022/11/22 03:24:06;;;;;;;11.23;9.80;;;8.20;99.90;;;;;;4974676;28;20029;-78
2022/11/22 03:26:33;;;;;;;13.07;10.18;;;8.30;99.90;;;;;;4990175;28;20054;-78
2022/11/22 03:28:59;;;;;;;12.05;10.60;;;8.20;99.90;;;;;;5006122;28;20034;-78
2022/11/22 03:31:25;;;;;;;11.65;10.48;;;8.30;99.90;;;;;;4988703;28;20046;-78
2022/11/22 03:33:51;;;;;;;10.38;9.55;;;8.30;99.90;;;;;;5005524;28;20027;-78
2022/11/22 03:36:18;;;;;;;14.20;11.02;;;8.30;99.90;;;;;;5002146;28;20779;-79
2022/11/22 03:38:44;;;;;;;11.98;10.95;;;8.30;99.90;;;;;;4975658;28;20495;-78
2022/11/22 03:41:10;;;;;;;12.05;10.85;;;8.40;99.90;;;;;;5005397;28;20038;-78
2022/11/22 03:43:37;;;;;;;10.80;9.77;;;8.40;99.90;;;;;;4985348;28;20050;-78
2022/11/22 03:46:03;;;;;;;12.13;11.20;;;8.40;99.90;;;;;;4990280;28;20073;-78
2022/11/22 03:48:29;;;;;;;12.68;11.43;;;8.40;99.90;;;;;;4991516;28;20034;-78
2022/11/22 03:51:05;;;;;;;12.77;11.57;;;8.40;99.90;;;;;;5007258;28;20054;-78
2022/11/22 03:53:31;;;;;;;13.07;10.50;;;8.40;99.90;;;;;;5008056;28;20373;-78
2022/11/22 03:55:58;;;;;;;11.15;9.98;;;8.30;99.90;;;;;;5007084;28;20045;-78
2022/11/22 03:58:24;;;;;;;11.27;10.13;;;8.30;99.90;;;;;;4991313;28;20031;-78
2022/11/22 04:00:50;;;;;;;10.32;9.48;;;8.40;99.90;;;;;;4991395;28;20093;-78
2022/11/22 04:03:16;;;;;;;10.40;9.48;;;8.40;99.90;;;;;;5007969;28;20041;-78
2022/11/22 04:05:44;;;;;;;11.55;10.52;;;8.40;99.90;;;;;;4994812;28;20038;-78
2022/11/22 04:08:10;;;;;;;11.35;10.27;;;8.40;99.90;;;;;;5011708;28;20035;-78
2022/11/22 04:10:36;;;;;;;10.50;9.30;;;8.40;99.90;;;;;;5011238;28;20052;-79
2022/11/22 04:13:02;;;;;;;14.77;10.48;;;8.40;99.90;;;;;;4995498;28;20057;-79
2022/11/22 04:15:28;;;;;;;12.77;9.75;;;8.40;99.90;;;;;;5011242;28;20510;-78
2022/11/22 04:17:54;;;;;;;10.30;9.13;;;8.40;99.90;;;;;;4996937;28;20030;-79
2022/11/22 04:23:08;;;;;;;13.48;10.48;;;8.50;99.90;;;;;;4964490;28;20054;-79
2022/11/22 04:25:36;;;;;;;15.63;10.98;;;8.40;99.90;;;;;;4947272;28;20035;-78
2022/11/22 04:28:03;;;;;;;11.45;9.93;;;8.40;99.90;;;;;;4978247;28;20056;-78
2022/11/22 04:33:14;;;;;;;15.98;10.57;;;8.40;99.90;;;;;;4990437;28;20053;-78
2022/11/22 04:35:40;;;;;;;11.20;9.93;;;8.40;99.90;;;;;;4984792;28;20038;-79
2022/11/22 04:38:07;;;;;;;14.32;10.52;;;8.50;99.90;;;;;;4994496;28;20046;-78
2022/11/22 04:40:33;;;;;;;11.90;10.05;;;8.50;99.90;;;;;;5008744;28;20038;-79
2022/11/22 04:45:44;;;;;;;11.63;10.35;;;8.50;99.90;;;;;;4998280;28;20501;-79
2022/11/22 04:48:11;;;;;;;13.68;10.60;;;8.50;99.90;;;;;;4992649;28;20415;-78
2022/11/22 04:53:22;;;;;;;10.60;9.73;;;8.50;99.90;;;;;;5008645;28;19921;-78
2022/11/22 04:55:48;;;;;;;11.27;10.30;;;8.50;99.90;;;;;;5009976;28;20033;-78
2022/11/22 04:58:14;;;;;;;11.25;10.15;;;8.50;99.90;;;;;;4985508;28;20026;-79
2022/11/22 05:00:41;;;;;;;11.65;10.00;;;8.50;99.90;;;;;;5010854;28;20050;-78
2022/11/22 05:03:07;;;;;;;106.95;14.60;;;8.60;99.90;;;;;;5008783;28;20037;-78
2022/11/22 05:05:37;;;;;;;11.88;10.10;;;8.60;99.90;;;;;;4993728;28;20038;-78
2022/11/22 05:08:03;;;;;;;9.55;8.80;;;8.60;99.90;;;;;;4995243;28;20038;-78
2022/11/22 05:10:55;;;;;;;11.65;9.50;;;8.60;99.90;;;;;;4994589;28;20395;-78
2022/11/22 05:13:21;;;;;;;11.95;10.18;;;8.60;99.90;;;;;;4985944;28;20038;-80
2022/11/22 05:15:47;;;;;;;12.13;10.23;;;8.60;99.90;;;;;;5009719;28;20034;-79
2022/11/22 05:18:13;;;;;;;11.82;10.30;;;8.60;99.90;;;;;;4992443;28;20038;-79
2022/11/22 05:20:39;;;;;;;12.38;10.18;;;8.60;99.90;;;;;;5026870;28;20093;-78
2022/11/22 05:25:50;;;;;;;16.88;11.23;;;8.60;99.90;;;;;;4997153;28;20415;-78
2022/11/22 05:28:16;;;;;;;10.90;9.75;;;8.60;99.90;;;;;;4978512;28;20054;-78
2022/11/22 05:30:42;;;;;;;13.90;10.80;;;8.60;99.90;;;;;;4976671;28;20038;-78
2022/11/22 05:33:08;;;;;;;14.80;10.35;;;8.60;99.90;;;;;;4993029;28;20042;-79
2022/11/22 05:35:34;;;;;;;14.05;10.30;;;8.70;99.90;;;;;;4993794;28;20061;-78
2022/11/22 05:38:00;;;;;;;14.90;10.52;;;8.70;99.90;;;;;;4995005;28;20026;-78
2022/11/22 05:40:26;;;;;;;12.25;10.93;;;8.70;99.90;;;;;;4990215;28;20035;-81
2022/11/22 05:42:52;;;;;;;11.40;10.20;;;8.70;99.90;;;;;;4991269;28;20034;-79
2022/11/22 05:45:18;;;;;;;12.07;10.73;;;8.70;99.90;;;;;;4976690;28;20118;-79
2022/11/22 05:47:45;;;;;;;12.45;10.82;;;8.80;99.90;;;;;;4977343;28;20030;-79
2022/11/22 05:50:11;;;;;;;13.75;10.40;;;8.80;99.90;;;;;;4976769;28;20033;-79
2022/11/22 05:52:37;;;;;;;12.80;11.57;;;8.70;99.90;;;;;;4992714;28;20046;-79
2022/11/22 05:55:04;;;;;;;12.02;11.10;;;8.70;99.90;;;;;;4994906;28;20368;-79
2022/11/22 05:57:31;;;;;;;12.98;11.60;;;8.70;99.90;;;;;;4993047;28;20031;-79
2022/11/22 05:59:57;;;;;;;19.63;13.63;;;8.70;99.90;;;;;;4993212;28;20030;-79
2022/11/22 06:02:23;;;;;;;12.70;11.50;;;8.80;99.90;;;;;;5025080;28;20053;-79
2022/11/22 06:04:49;;;;;;;16.13;14.50;;;8.70;99.90;;;;;;5025745;28;20094;-79
2022/11/22 06:07:15;;;;;;;15.07;13.65;;;8.70;99.90;;;;;;4994490;28;20038;-79
2022/11/22 06:09:42;;;;;;;14.18;13.07;;;8.70;99.90;;;;;;4993724;28;20035;-79
2022/11/22 06:12:08;;;;;;;16.10;14.57;;;8.70;99.90;;;;;;5024278;28;20065;-79
2022/11/22 06:14:34;;;;;;;15.43;13.93;;;8.70;99.90;;;;;;5025794;28;20033;-79
2022/11/22 06:17:00;;;;;;;16.17;14.95;;;8.70;99.90;;;;;;5028663;28;20475;-79
2022/11/22 06:19:26;;;;;;;15.93;14.73;;;8.70;99.90;;;;;;5005310;28;20045;-79
2022/11/22 06:21:52;;;;;;;18.15;16.17;;;8.80;99.90;;;;;;5009220;28;20422;-79
2022/11/22 06:24:18;;;;;;;16.85;15.40;;;8.70;99.90;;;;;;4992907;28;20026;-80
2022/11/22 06:26:44;;;;;;;16.95;15.25;;;8.80;99.90;;;;;;4990822;28;20065;-80
2022/11/22 06:29:11;;;;;;;16.15;14.57;;;8.80;99.90;;;;;;5009779;28;20415;-79
2022/11/22 06:31:37;;;;;;;15.25;13.82;;;8.80;99.90;;;;;;4991845;28;20061;-79
2022/11/22 06:34:03;;;;;;;16.85;15.45;;;8.70;99.90;;;;;;4994008;28;20053;-79
2022/11/22 06:36:30;;;;;;;17.70;16.08;;;8.70;99.90;;;;;;4976728;28;20042;-79
2022/11/22 06:38:57;;;;;;;17.00;15.48;;;8.70;99.90;;;;;;4992935;28;20022;-79
2022/11/22 06:41:24;;;;;;;18.20;16.55;;;8.70;99.90;;;;;;4975940;28;20034;-79
2022/11/22 06:43:51;;;;;;;17.00;15.25;;;8.70;99.90;;;;;;5025409;28;20030;-79
2022/11/22 06:46:18;;;;;;;14.73;13.48;;;8.70;99.90;;;;;;5016407;28;20045;-79
2022/11/22 06:48:45;;;;;;;17.25;15.82;;;8.80;99.90;;;;;;5008699;28;20023;-79
2022/11/22 06:51:12;;;;;;;17.27;15.30;;;8.70;99.90;;;;;;4990865;28;20026;-79
2022/11/22 06:53:38;;;;;;;18.10;16.70;;;8.70;99.90;;;;;;4981131;28;20051;-79
2022/11/22 06:56:08;;;;;;;17.15;15.77;;;8.70;99.90;;;;;;5024409;28;20030;-79
2022/11/22 06:58:35;;;;;;;17.20;15.63;;;8.80;99.90;;;;;;4992412;28;20030;-79
2022/11/22 07:01:08;;;;;;;13.20;12.10;;;8.80;99.90;;;;;;4991641;28;20031;-79
2022/11/22 07:03:35;;;;;;;15.63;14.43;;;8.70;99.90;;;;;;4988743;28;20027;-79
2022/11/22 07:06:02;;;;;;;17.55;15.95;;;8.70;99.90;;;;;;4989226;28;20026;-79
2022/11/22 07:08:28;;;;;;;18.45;16.38;;;8.70;99.90;;;;;;4988851;28;20038;-79
2022/11/22 07:10:54;;;;;;;15.20;13.52;;;8.70;99.90;;;;;;5002172;28;20043;-79
2022/11/22 07:13:20;;;;;;;21.35;13.25;;;8.70;99.90;;;;;;5007316;28;20042;-79
2022/11/22 07:15:56;;;;;;;16.58;15.07;;;8.70;99.90;;;;;;5008043;28;20042;-79
2022/11/22 07:18:22;;;;;;;18.27;14.65;;;8.70;99.90;;;;;;4984797;28;20030;-79
2022/11/22 07:20:48;;;;;;;16.73;15.07;;;8.70;99.90;;;;;;4990962;28;20498;-79
2022/11/22 07:23:14;;;;;;;15.35;11.85;;;8.80;99.90;;;;;;5008442;28;20018;-79
2022/11/22 07:25:47;;;;;;;16.42;15.02;;;8.80;99.90;;;;;;4991337;28;20046;-79
2022/11/22 07:28:14;;;;;;;15.95;12.80;;;8.80;99.90;;;;;;4991704;28;20030;-81
2022/11/22 07:30:40;;;;;;;20.20;15.48;;;8.70;99.90;;;;;;4990461;28;20034;-79
2022/11/22 07:33:07;;;;;;;16.73;15.43;;;8.70;99.90;;;;;;4992632;28;20038;-80
2022/11/22 07:35:33;;;;;;;17.27;14.68;;;8.70;99.90;;;;;;4971911;28;20030;-80
2022/11/22 07:37:59;;;;;;;16.60;14.68;;;8.70;99.90;;;;;;4990999;28;20030;-80
2022/11/22 07:40:25;;;;;;;14.52;13.13;;;8.70;99.90;;;;;;5008019;28;20082;-80
2022/11/22 07:42:52;;;;;;;16.48;14.80;;;8.80;99.90;;;;;;5008133;28;20387;-81
2022/11/22 07:45:18;;;;;;;21.45;14.82;;;8.80;99.90;;;;;;5006196;28;20048;-80
2022/11/22 07:47:44;;;;;;;16.08;14.57;;;8.80;99.90;;;;;;5006424;28;20030;-80
2022/11/22 07:50:10;;;;;;;15.45;13.98;;;8.80;99.90;;;;;;4991105;28;20367;-80
2022/11/22 07:52:36;;;;;;;19.42;14.68;;;8.80;99.90;;;;;;4968946;28;20038;-81
2022/11/22 07:55:05;;;;;;;20.42;15.30;;;8.80;99.90;;;;;;5010836;28;20026;-79
2022/11/22 07:57:31;;;;;;;19.83;14.05;;;8.80;99.90;;;;;;4993033;28;20395;-80
2022/11/22 07:59:57;;;;;;;18.20;15.38;;;8.90;99.90;;;;;;4991759;28;20030;-84
2022/11/22 08:02:24;;;;;;;19.65;14.07;;;8.90;99.90;;;;;;4989936;28;20046;-82
2022/11/22 08:04:50;;;;;;;17.30;14.75;;;8.90;99.90;;;;;;4966269;28;20053;-80
2022/11/22 08:07:16;;;;;;;17.05;14.35;;;8.90;99.90;;;;;;4992965;28;20484;-80
2022/11/22 08:09:42;;;;;;;17.30;15.55;;;8.90;99.90;;;;;;4992705;28;20034;-80
2022/11/22 08:12:08;;;;;;;17.15;15.48;;;8.90;99.90;;;;;;4990580;28;20054;-81
2022/11/22 08:14:34;;;;;;;18.20;16.80;;;9.00;99.90;;;;;;4991189;28;20035;-79
2022/11/22 08:17:01;;;;;;;19.85;17.95;;;9.00;99.90;;;;;;4982210;28;20043;-79
2022/11/22 08:19:27;;;;;;;19.15;16.20;;;9.00;99.90;;;;;;4974729;28;20039;-81
2022/11/22 08:21:53;;;;;;;20.15;18.20;;;9.00;99.90;;;;;;5006722;28;20035;-82
2022/11/22 08:24:20;;;;;;;18.63;17.15;;;9.10;99.90;;;;;;5007581;28;20494;-80
2022/11/22 08:26:46;;;;;;;19.33;17.42;;;9.00;99.90;;;;;;4991006;28;20050;-81
2022/11/22 08:29:12;;;;;;;18.45;16.98;;;9.10;99.90;;;;;;5003498;28;20498;-80
2022/11/22 08:31:38;;;;;;;18.67;16.83;;;9.10;99.90;;;;;;5020178;28;20034;-81
2022/11/22 08:34:05;;;;;;;17.85;16.35;;;9.10;99.90;;;;;;5007507;28;20037;-80
2022/11/22 08:36:31;;;;;;;14.50;12.80;;;9.20;99.90;;;;;;5006795;28;20038;-80
2022/11/22 08:38:57;;;;;;;33.47;30.60;;;9.20;99.90;;;;;;4992463;28;20065;-81
2022/11/22 08:41:23;;;;;;;19.63;17.65;;;9.30;99.90;;;;;;4990803;28;20027;-81
2022/11/22 08:43:50;;;;;;;15.52;12.95;;;9.30;99.90;;;;;;5007106;28;20030;-81
2022/11/22 08:46:16;;;;;;;15.90;14.27;;;9.40;99.90;;;;;;5014050;28;20034;-80
2022/11/22 08:48:42;;;;;;;16.17;14.52;;;9.40;99.90;;;;;;5022734;28;20074;-81
2022/11/22 08:51:09;;;;;;;17.05;14.00;;;9.50;99.90;;;;;;4979949;28;20046;-82
2022/11/22 08:53:37;;;;;;;17.80;15.90;;;9.50;99.90;;;;;;4984238;28;20053;-82
2022/11/22 08:56:04;;;;;;;14.23;12.02;;;9.60;99.90;;;;;;4976475;28;20030;-81
2022/11/22 08:58:31;;;;;;;12.30;11.30;;;9.60;99.90;;;;;;5008984;28;20034;-82
2022/11/22 09:01:03;;;;;;;17.52;11.45;;;9.70;99.90;;;;;;5008994;28;20043;-82
2022/11/22 09:03:29;;;;;;;13.35;11.82;;;9.70;99.90;;;;;;4979496;28;20043;-81
2022/11/22 09:06:03;;;;;;;13.80;11.80;;;9.80;99.90;;;;;;4994798;28;20034;-82
2022/11/22 09:08:30;;;;;;;14.77;12.07;;;9.80;99.90;;;;;;4993791;28;20027;-82
2022/11/22 09:11:08;;;;;;;14.15;12.85;;;9.90;99.90;;;;;;4994373;28;20511;-83
2022/11/22 09:13:34;;;;;;;20.42;18.58;;;9.90;99.90;;;;;;4992971;28;20403;-82
2022/11/22 09:16:05;;;;;;;16.17;14.52;;;10.00;99.90;;;;;;4986540;28;20034;-81
2022/11/22 09:18:31;;;;;;;13.38;12.13;;;10.00;99.90;;;;;;4994471;28;20472;-78
2022/11/22 09:21:01;;;;;;;16.67;11.70;;;10.10;99.90;;;;;;4994690;28;20038;-79
2022/11/22 09:23:27;;;;;;;16.75;12.40;;;10.10;99.90;;;;;;4987009;28;20431;-80
2022/11/22 09:26:08;;;;;;;15.90;12.20;;;10.10;99.90;;;;;;4978705;28;20045;-84
2022/11/22 09:28:34;;;;;;;14.93;12.35;;;10.20;99.90;;;;;;4973831;28;20031;-80
2022/11/22 09:31:00;;;;;;;14.63;11.80;;;10.30;99.90;;;;;;4991046;28;20041;-80
2022/11/22 09:33:27;;;;;;;13.00;11.77;;;10.30;99.90;;;;;;4992996;28;20046;-82
2022/11/22 09:36:04;;;;;;;15.70;11.35;;;10.40;99.90;;;;;;5009797;28;20420;-81
2022/11/22 09:38:30;;;;;;;15.52;11.80;;;10.40;99.90;;;;;;4984054;28;20023;-81
2022/11/22 09:40:56;;;;;;;14.27;12.07;;;10.40;99.90;;;;;;4983920;28;20086;-81
2022/11/22 09:43:31;;;;;;;15.48;12.20;;;10.50;99.90;;;;;;4956181;28;20030;-79
2022/11/22 09:46:18;;;;;;;14.55;11.60;;;10.50;99.90;;;;;;4989462;28;20034;-80
2022/11/22 09:49:09;;;;;;;14.40;11.73;;;10.60;99.90;;;;;;4990161;28;20050;-81
2022/11/22 09:52:18;;;;;;;15.90;12.18;;;10.70;99.90;;;;;;4976614;28;20506;-81
2022/11/22 09:54:51;;;;;;;27.95;25.90;;;10.70;99.90;;;;;;4984540;28;20054;-81
2022/11/22 09:57:36;;;;;;;18.52;11.40;;;10.80;99.90;;;;;;5009612;28;20031;-83
2022/11/22 10:00:07;;;;;;;14.43;10.95;;;10.90;99.90;;;;;;4989307;28;20043;-82
2022/11/22 10:02:36;;;;;;;;;;;10.90;99.90;;;;;;5009126;28;20042;-83
2022/11/22 10:05:15;;;;;;;15.60;11.57;;;11.00;99.90;;;;;;5008919;28;19917;-83
2022/11/22 10:07:43;;;;;;;16.73;10.93;;;11.10;99.90;;;;;;5011868;28;20022;-82
2022/11/22 10:10:37;;;;;;;17.95;12.73;;;11.20;99.90;;;;;;4990095;28;20030;-82
2022/11/22 10:13:18;;;;;;;21.08;11.13;;;11.20;99.90;;;;;;4984583;28;20474;-85
2022/11/22 10:16:30;;;;;;;15.73;12.80;;;11.20;99.90;;;;;;4975149;28;20046;-84
2022/11/22 10:19:03;;;;;;;12.93;11.43;;;11.30;99.90;;;;;;4974639;28;20510;-82
2022/11/22 10:21:30;;;;;;;14.00;12.20;;;11.30;99.90;;;;;;4964358;28;20030;-81
2022/11/22 10:23:56;;;;;;;13.32;10.48;;;11.30;99.90;;;;;;4944929;28;20057;-82
2022/11/22 10:26:32;;;;;;;13.10;11.65;;;11.40;99.90;;;;;;4955164;28;20150;-82
2022/11/22 10:29:25;;;;;;;13.23;10.85;;;11.40;99.90;;;;;;4972129;28;20038;-82
2022/11/22 10:32:09;;;;;;;15.93;11.50;;;11.40;99.90;;;;;;4971767;28;20034;-84
2022/11/22 10:35:10;;;;;;;16.80;12.70;;;11.40;99.90;;;;;;4971367;28;20508;-82
2022/11/22 10:37:58;;;;;;;16.23;12.25;;;11.50;99.90;;;;;;4932660;29;20160;-83
2022/11/22 10:40:45;;;;;;;13.10;11.55;;;11.50;99.90;;;;;;4940280;29;20036;-84
2022/11/22 10:43:32;;;;;;;14.65;11.93;;;11.60;99.90;;;;;;4948360;29;20039;-83
2022/11/22 10:46:17;;;;;;;17.83;16.10;;;11.60;99.90;;;;;;4931498;28;20522;-85
2022/11/22 10:48:53;;;;;;;16.30;11.02;;;11.60;99.90;;;;;;4932315;29;20390;-83
2022/11/22 10:51:37;;;;;;;15.55;12.23;;;11.60;99.90;;;;;;4933548;29;20157;-80
2022/11/22 10:54:24;;;;;;;23.15;21.02;;;11.70;99.90;;;;;;4932805;29;20058;-81
2022/11/22 10:56:58;;;;;;;18.02;13.05;;;11.70;99.90;;;;;;4917687;29;20043;-81
2022/11/22 10:59:29;;;;;;;42.10;39.17;;;11.70;99.90;;;;;;4915503;29;20035;-83
2022/11/22 11:02:00;;;;;;;17.30;12.60;;;11.80;99.90;;;;;;4927419;28;20417;-82
2022/11/22 11:04:31;;;;;;;39.45;36.60;;;11.80;99.90;;;;;;4949638;28;20535;-81
2022/11/22 11:06:59;;;;;;;21.38;11.75;;;11.80;99.90;;;;;;4932551;29;20609;-82
2022/11/22 11:09:31;;;;;;;16.63;12.98;;;11.90;99.90;;;;;;4948212;29;20382;-83
2022/11/22 11:11:57;;;;;;;22.95;12.50;;;11.90;99.90;;;;;;4931406;29;20027;-81
2022/11/22 11:14:36;;;;;;;19.25;12.70;;;12.00;99.90;;;;;;4946057;28;20054;-82
2022/11/22 11:17:02;;;;;;;19.85;12.85;;;12.00;99.90;;;;;;4991480;28;20041;-81
2022/11/22 11:19:30;;;;;;;19.00;11.65;;;12.00;99.90;;;;;;4987167;28;20038;-83
2022/11/22 11:22:01;;;;;;;19.27;11.82;;;12.00;99.90;;;;;;4965386;28;20034;-84
2022/11/22 11:24:28;;;;;;;20.13;12.18;;;12.00;99.90;;;;;;4971587;28;20119;-84
2022/11/22 11:26:55;;;;;;;15.55;11.68;;;12.00;99.90;;;;;;4977559;28;20034;-84
2022/11/22 11:29:27;;;;;;;15.27;10.73;;;12.20;99.90;;;;;;4975129;28;20403;-84
2022/11/22 11:32:20;;;;;;;19.20;12.48;;;12.20;99.90;;;;;;4987623;28;20049;-85
2022/11/22 11:35:04;;;;;;;16.15;12.68;;;12.30;99.90;;;;;;4980084;28;20060;-84
2022/11/22 11:37:35;;;;;;;17.90;12.38;;;12.30;99.90;;;;;;4957207;28;20038;-83
2022/11/22 11:40:24;;;;;;;15.57;12.23;;;12.30;99.90;;;;;;5008383;28;20041;-85
2022/11/22 11:42:50;;;;;;;16.67;14.00;;;12.40;99.90;;;;;;4992992;28;20030;-85
2022/11/22 11:45:27;;;;;;;15.80;11.98;;;12.40;99.90;;;;;;4990021;28;20037;-85
2022/11/22 11:47:53;;;;;;;15.75;12.90;;;12.30;99.90;;;;;;5008344;28;20031;-85
2022/11/22 11:50:20;;;;;;;21.92;14.95;;;12.40;99.90;;;;;;4991339;28;20042;-85
2022/11/22 11:53:14;;;;;;;16.27;14.55;;;12.40;99.90;;;;;;5005292;28;20030;-82
2022/11/22 11:55:40;;;;;;;16.65;13.07;;;12.40;99.90;;;;;;5000731;28;20028;-84
2022/11/22 11:58:20;;;;;;;17.48;12.88;;;12.40;99.90;;;;;;5021980;28;20041;-84
2022/11/22 12:00:46;;;;;;;15.68;12.85;;;12.40;99.90;;;;;;4988520;28;20035;-82
2022/11/22 12:03:14;;;;;;;19.10;12.68;;;12.40;99.90;;;;;;5002409;28;20033;-82
2022/11/22 12:05:40;;;;;;;12.93;11.55;;;12.30;99.90;;;;;;5002635;28;20043;-81
2022/11/22 12:08:27;;;;;;;18.30;11.82;;;12.30;99.90;;;;;;4987519;28;20507;-80
2022/11/22 12:11:07;;;;;;;21.15;11.75;;;12.30;99.90;;;;;;5004942;28;20476;-82
2022/11/22 12:13:44;;;;;;;18.85;11.82;;;12.20;99.90;;;;;;4990478;28;20503;-81
2022/11/22 12:16:33;;;;;;;14.75;12.10;;;12.30;99.90;;;;;;4993809;28;20034;-81
2022/11/22 12:19:37;;;;;;;19.08;12.88;;;12.40;99.90;;;;;;4997526;28;20502;-81
2022/11/22 12:22:29;;;;;;;21.98;13.45;;;12.50;99.90;;;;;;4979712;28;20019;-81
2022/11/22 12:25:24;;;;;;;21.35;13.20;;;12.60;99.90;;;;;;4974655;28;20046;-81
2022/11/22 12:27:50;;;;;;;22.88;12.57;;;12.70;99.90;;;;;;4989567;28;20038;-81
2022/11/22 12:30:17;;;;;;;22.42;14.05;;;12.80;99.90;;;;;;4994328;28;20034;-81
2022/11/22 12:32:52;;;;;;;19.23;14.25;;;12.90;99.90;;;;;;4977132;28;20057;-81
2022/11/22 12:35:19;;;;;;;21.42;13.50;;;13.00;99.90;;;;;;4992671;28;20042;-81
2022/11/22 12:38:07;;;;;;;16.48;13.55;;;13.10;99.90;;;;;;4978066;28;20038;-81
2022/11/22 12:40:43;;;;;;;25.00;13.80;;;13.30;99.90;;;;;;4994381;28;20300;-81
2022/11/22 12:43:23;;;;;;;24.50;14.30;;;13.40;99.90;;;;;;5009013;28;20023;-81
2022/11/22 12:45:55;;;;;;;22.55;13.98;;;13.40;99.90;;;;;;4975522;28;20507;-81
2022/11/22 12:48:32;;;;;;;18.92;14.93;;;13.40;99.90;;;;;;4976850;28;20375;-81
2022/11/22 12:51:14;;;;;;;19.42;13.82;;;13.40;99.90;;;;;;4977583;28;20483;-81
2022/11/22 12:53:41;;;;;;;17.27;13.68;;;13.50;99.90;;;;;;4977562;28;20061;-81
2022/11/22 12:56:21;;;;;;;16.67;13.25;;;13.50;99.90;;;;;;4975976;28;20026;-81
2022/11/22 12:58:56;;;;;;;19.67;13.90;;;13.50;99.90;;;;;;5010402;28;20034;-81
2022/11/22 13:01:38;;;;;;;17.35;14.35;;;13.60;99.90;;;;;;4994173;28;20407;-81
2022/11/22 13:04:08;;;;;;;17.33;11.85;;;13.60;99.90;;;;;;5009850;28;20042;-81